Time;durP1;ratioP1;P1;durP2;ratioP2;P2;SDS_P1;SDS_P2;PMS_P1;PMS_P2;Temp;Humidity;BMP_temperature;BMP_pressure;BME280_temperature;BME280_humidity;BME280_pressure;Samples;Min_cycle;Max_cycle;Signal;HPM_P1;HPM_P2
2021/08/17 00:00:46;;;;;;;6.55;5.83;;;;;;;27.37;54.05;101345.19;1722896;82;21054;-46
2021/08/17 00:03:12;;;;;;;7.20;5.62;;;;;;;27.35;54.08;101351.15;1721565;82;21079;-47
2021/08/17 00:05:39;;;;;;;10.32;5.80;;;;;;;27.34;54.13;101347.27;1719987;82;21057;-49
2021/08/17 00:08:06;;;;;;;6.58;5.92;;;;;;;27.31;54.10;101344.33;1724719;82;21003;-46
2021/08/17 00:10:34;;;;;;;7.45;6.33;;;;;;;27.30;54.15;101348.47;1723581;82;21495;-49
2021/08/17 00:13:03;;;;;;;11.60;6.05;;;;;;;27.27;54.13;101352.23;1721843;82;21022;-49
2021/08/17 00:15:34;;;;;;;6.35;5.75;;;;;;;27.26;54.10;101356.38;1721843;82;21074;-47
2021/08/17 00:18:01;;;;;;;6.83;6.12;;;;;;;27.23;54.15;101354.80;1724759;82;21011;-52
2021/08/17 00:20:30;;;;;;;6.42;5.78;;;;;;;27.22;54.11;101355.75;1722812;82;21038;-46
2021/08/17 00:22:58;;;;;;;7.62;5.75;;;;;;;27.20;54.17;101352.88;1722749;82;21045;-50
2021/08/17 00:25:24;;;;;;;9.65;6.28;;;;;;;27.17;54.20;101348.62;1717011;82;21060;-49
2021/08/17 00:27:51;;;;;;;7.22;6.28;;;;;;;27.14;54.29;101340.84;1725288;82;21066;-47
2021/08/17 00:30:17;;;;;;;6.50;5.78;;;;;;;27.13;54.30;101346.31;1725323;82;21510;-49
2021/08/17 00:32:44;;;;;;;6.80;5.95;;;;;;;27.10;54.38;101346.07;1719916;83;21026;-48
2021/08/17 00:35:10;;;;;;;14.58;7.37;;;;;;;27.09;54.38;101352.41;1712255;82;21482;-47
2021/08/17 00:37:39;;;;;;;16.65;8.03;;;;;;;27.07;54.43;101346.81;1720265;82;21014;-49
2021/08/17 00:40:07;;;;;;;10.98;8.93;;;;;;;27.05;54.49;101350.95;1724800;82;21051;-48
2021/08/17 00:42:45;;;;;;;8.50;6.62;;;;;;;27.03;54.61;101344.89;1722711;82;21560;-47
2021/08/17 00:45:20;;;;;;;8.48;6.75;;;;;;;27.00;54.70;101341.59;1725841;82;21030;-49
2021/08/17 00:47:48;;;;;;;9.18;5.85;;;;;;;26.99;54.75;101352.80;1723574;82;21070;-46
2021/08/17 00:50:15;;;;;;;7.05;6.05;;;;;;;26.97;54.71;101353.40;1727026;82;21053;-48
2021/08/17 00:52:43;;;;;;;7.40;6.58;;;;;;;26.95;54.78;101350.00;1724085;82;21034;-48
2021/08/17 00:55:11;;;;;;;7.90;5.78;;;;;;;26.94;54.85;101344.77;1722210;82;21521;-49
2021/08/17 00:57:40;;;;;;;7.90;5.95;;;;;;;26.91;54.89;101341.87;1727330;82;20991;-50
2021/08/17 01:00:09;;;;;;;8.33;6.30;;;;;;;26.91;54.90;101342.36;1720542;82;20979;-50
2021/08/17 01:02:36;;;;;;;10.70;5.85;;;;;;;26.87;54.94;101340.42;1722415;82;20995;-46
2021/08/17 01:05:06;;;;;;;8.85;6.10;;;;;;;26.87;54.95;101339.09;1720714;82;21331;-47
2021/08/17 01:07:32;;;;;;;6.78;5.78;;;;;;;26.86;54.98;101343.20;1667700;84;21022;-48
2021/08/17 01:09:59;;;;;;;7.35;6.58;;;;;;;26.84;55.09;101340.66;1655513;84;21002;-48
2021/08/17 01:12:25;;;;;;;6.72;6.03;;;;;;;26.83;55.05;101336.78;1655177;85;21022;-49
2021/08/17 01:14:52;;;;;;;10.45;6.35;;;;;;;26.82;55.14;101335.08;1655151;85;21037;-46
2021/08/17 01:17:20;;;;;;;8.35;6.30;;;;;;;26.80;55.24;101335.20;1672015;84;21026;-46
2021/08/17 01:19:48;;;;;;;7.92;6.17;;;;;;;26.78;55.34;101328.28;1675700;85;21069;-46
2021/08/17 01:22:15;;;;;;;9.03;6.03;;;;;;;26.76;55.40;101335.09;1644749;84;21581;-49
2021/08/17 01:24:42;;;;;;;6.25;5.65;;;;;;;26.73;55.41;101333.98;1654144;85;21059;-47
2021/08/17 01:27:12;;;;;;;8.30;6.33;;;;;;;26.71;55.49;101331.89;1668854;85;21578;-49
2021/08/17 01:29:42;;;;;;;7.60;6.35;;;;;;;26.69;55.57;101328.49;1668480;85;21113;-46
2021/08/17 01:32:12;;;;;;;8.28;6.05;;;;;;;26.69;55.60;101327.67;1649906;84;21094;-48
2021/08/17 01:34:37;;;;;;;10.32;6.40;;;;;;;26.68;55.78;101326.81;1652357;85;21519;-49
2021/08/17 01:37:06;;;;;;;7.03;6.40;;;;;;;26.67;55.74;101330.44;1640738;85;21582;-49
2021/08/17 01:39:33;;;;;;;6.53;5.85;;;;;;;26.65;55.71;101327.04;1654523;85;21061;-50
2021/08/17 01:41:59;;;;;;;7.30;6.60;;;;;;;26.65;55.78;101327.04;1643543;85;21541;-51
2021/08/17 01:44:26;;;;;;;8.75;6.33;;;;;;;26.66;55.50;101323.41;1661404;85;21006;-49
2021/08/17 01:46:54;;;;;;;9.58;6.15;;;;;;;26.65;55.61;101321.70;1668844;85;21534;-48
2021/08/17 01:49:21;;;;;;;9.53;7.22;;;;;;;26.64;55.61;101318.69;1655738;84;21057;-47
2021/08/17 01:51:48;;;;;;;8.55;6.67;;;;;;;26.62;55.64;101319.30;1642614;85;21454;-50
2021/08/17 01:54:16;;;;;;;7.12;6.42;;;;;;;26.61;55.71;101325.59;1657448;85;21070;-48
2021/08/17 01:56:44;;;;;;;7.05;6.35;;;;;;;26.58;55.66;101320.51;1670132;85;21006;-50
2021/08/17 01:59:13;;;;;;;7.28;6.60;;;;;;;26.56;55.70;101318.45;1657616;85;21069;-47
2021/08/17 02:01:43;;;;;;;8.18;6.53;;;;;;;26.52;55.72;101313.81;1661124;85;21542;-47
2021/08/17 02:04:10;;;;;;;9.05;6.33;;;;;;;26.50;55.78;101314.42;1679983;82;21112;-52
2021/08/17 02:06:37;;;;;;;8.98;7.22;;;;;;;26.48;55.79;101311.54;1723349;82;21503;-47
2021/08/17 02:09:04;;;;;;;9.38;7.42;;;;;;;26.46;55.88;101307.63;1721718;82;21062;-49
2021/08/17 02:11:31;;;;;;;7.60;6.50;;;;;;;26.44;55.95;101304.74;1719833;82;21034;-47
2021/08/17 02:13:58;;;;;;;6.90;6.20;;;;;;;26.42;56.07;101301.34;1730333;82;21157;-48
2021/08/17 02:16:26;;;;;;;10.00;7.40;;;;;;;26.40;56.12;101300.59;1712993;82;21069;-46
2021/08/17 02:18:54;;;;;;;9.25;6.97;;;;;;;26.38;56.16;101293.19;1728454;82;21037;-49
2021/08/17 02:21:22;;;;;;;9.43;7.60;;;;;;;26.36;56.20;101288.46;1710279;82;21021;-47
2021/08/17 02:23:50;;;;;;;8.33;7.22;;;;;;;26.33;56.31;101286.91;1719259;82;21590;-47
2021/08/17 02:26:17;;;;;;;8.15;6.80;;;;;;;26.31;56.41;101292.00;1717595;82;21021;-51
2021/08/17 02:28:44;;;;;;;7.53;6.62;;;;;;;26.27;56.48;101287.39;1723783;82;21009;-49
2021/08/17 02:31:12;;;;;;;7.80;7.03;;;;;;;26.26;56.52;101290.16;1665504;84;21276;-46
2021/08/17 02:33:40;;;;;;;8.20;7.40;;;;;;;26.23;56.62;101291.27;1665254;84;21042;-48
2021/08/17 02:36:08;;;;;;;8.48;7.17;;;;;;;26.22;56.71;101291.37;1673022;83;21017;-49
2021/08/17 02:38:34;;;;;;;10.13;6.90;;;;;;;26.19;56.80;101286.30;1676659;84;21542;-48
2021/08/17 02:41:00;;;;;;;13.43;6.55;;;;;;;26.18;56.80;101284.58;1672860;85;21014;-48
2021/08/17 02:43:28;;;;;;;7.97;7.22;;;;;;;26.16;56.94;101286.52;1673925;83;21052;-50
2021/08/17 02:45:55;;;;;;;16.67;7.85;;;;;;;26.15;56.70;101290.17;1680648;84;21043;-49
2021/08/17 02:48:23;;;;;;;13.62;7.35;;;;;;;26.12;56.92;101290.39;1718657;82;21062;-48
2021/08/17 02:50:50;;;;;;;10.38;7.30;;;;;;;26.10;57.16;101295.00;1717603;82;21046;-49
2021/08/17 02:53:17;;;;;;;11.55;6.65;;;;;;;26.10;57.16;101295.00;1723378;82;21613;-47
2021/08/17 02:55:44;;;;;;;8.70;7.80;;;;;;;26.06;57.26;101291.70;1719523;82;21038;-49
2021/08/17 02:58:10;;;;;;;10.68;7.97;;;;;;;26.06;57.26;101291.70;1720704;82;21510;-47
2021/08/17 03:03:07;;;;;;;8.15;7.35;;;;;;;26.06;57.19;101296.17;1653953;85;21541;-50
2021/08/17 03:05:34;;;;;;;10.95;7.10;;;;;;;26.04;57.53;101294.11;1645551;85;21089;-49
2021/08/17 03:08:03;;;;;;;9.30;7.25;;;;;;;25.98;57.27;101295.92;1642458;85;21169;-48
2021/08/17 03:10:33;;;;;;;11.50;7.30;;;;;;;25.99;57.54;101305.64;1643532;85;21621;-47
2021/08/17 03:13:03;;;;;;;10.75;7.15;;;;;;;25.99;57.59;101308.30;1635913;86;21052;-47
2021/08/17 03:15:33;;;;;;;10.53;7.20;;;;;;;25.99;57.59;101308.30;1636683;86;22335;-48
2021/08/17 03:18:03;;;;;;;20.17;7.42;;;;;;;25.98;57.59;101309.25;1610192;87;21102;-46
2021/08/17 03:20:30;;;;;;;11.68;7.35;;;;;;;25.99;57.53;101313.64;1627264;86;21077;-48
2021/08/17 03:22:57;;;;;;;9.65;7.53;;;;;;;25.94;57.76;101305.13;1638144;86;21050;-47
2021/08/17 03:25:26;;;;;;;8.60;7.70;;;;;;;25.94;57.76;101305.13;1622627;87;21078;-49
2021/08/17 03:27:54;;;;;;;12.15;8.03;;;;;;;25.96;57.56;101310.72;1636616;86;21065;-49
2021/08/17 03:30:24;;;;;;;15.45;7.53;;;;;;;25.95;57.63;101308.14;1606605;88;21105;-46
2021/08/17 03:32:51;;;;;;;13.38;7.42;;;;;;;25.95;57.65;101309.48;1604135;88;21113;-48
2021/08/17 03:35:18;;;;;;;12.07;7.67;;;;;;;25.95;57.70;101315.66;1607570;88;22709;-50
2021/08/17 03:37:45;;;;;;;11.12;6.97;;;;;;;25.95;57.70;101315.66;1610284;88;21098;-49
2021/08/17 03:40:15;;;;;;;15.85;7.75;;;;;;;25.95;57.67;101317.48;1606691;88;21534;-47
2021/08/17 03:42:42;;;;;;;10.88;6.58;;;;;;;25.93;57.99;101320.74;1536904;90;21104;-46
2021/08/17 03:45:12;;;;;;;10.88;7.15;;;;;;;25.93;57.99;101320.74;1576172;89;21692;-48
2021/08/17 03:47:39;;;;;;;13.83;7.62;;;;;;;25.95;57.88;101315.66;1522748;92;21557;-49
2021/08/17 03:50:07;;;;;;;10.32;6.78;;;;;;;25.95;57.88;101315.66;1537604;92;21061;-46
2021/08/17 03:52:35;;;;;;;11.63;7.65;;;;;;;25.97;57.74;101319.54;1535126;91;21666;-48
2021/08/17 03:55:02;;;;;;;21.52;18.15;;;;;;;25.97;57.72;101320.88;1537781;91;21047;-48
2021/08/17 03:57:29;;;;;;;15.93;11.93;;;;;;;25.98;57.67;101317.25;1539765;90;21145;-51
2021/08/17 03:59:55;;;;;;;15.98;10.25;;;;;;;26.05;57.67;101318.50;1554720;89;21846;-50
2021/08/17 04:02:23;;;;;;;39.27;12.93;;;;;;;26.16;57.37;101320.72;1558846;90;21145;-49
2021/08/17 04:04:51;;;;;;;13.88;9.43;;;;;;;26.22;57.30;101322.05;1611188;88;21070;-52
2021/08/17 04:07:17;;;;;;;10.18;7.30;;;;;;;26.25;56.92;101322.69;1610427;87;21066;-47
2021/08/17 04:09:44;;;;;;;89.25;11.25;;;;;;;26.29;56.69;101328.62;1630437;85;21578;-49
2021/08/17 04:12:10;;;;;;;41.30;10.23;;;;;;;26.36;56.65;101324.01;1650838;85;21099;-48
2021/08/17 04:14:38;;;;;;;52.80;10.15;;;;;;;26.36;56.65;101324.01;1665701;85;21104;-49
2021/08/17 04:17:06;;;;;;;98.17;12.63;;;;;;;26.29;57.14;101328.62;1667548;85;21006;-47
2021/08/17 04:19:38;;;;;;;79.35;10.38;;;;;;;26.33;57.26;101326.08;1650053;85;21036;-49
2021/08/17 04:22:03;;;;;;;54.48;10.03;;;;;;;26.34;57.20;101326.42;1663409;85;21101;-49
2021/08/17 04:24:30;;;;;;;33.75;8.88;;;;;;;26.34;57.20;101326.42;1664675;85;21206;-48
2021/08/17 04:26:56;;;;;;;31.45;9.60;;;;;;;26.38;57.20;101323.88;1664960;84;21529;-46
2021/08/17 04:29:24;;;;;;;14.98;7.10;;;;;;;26.45;57.10;101333.11;1663098;85;21112;-48
2021/08/17 04:31:51;;;;;;;9.85;6.00;;;;;;;26.48;57.14;101328.88;1665705;85;21018;-47
2021/08/17 04:34:18;;;;;;;17.80;7.22;;;;;;;26.51;56.93;101331.30;1661776;84;21039;-47
2021/08/17 04:36:44;;;;;;;26.90;7.80;;;;;;;26.56;56.66;101333.95;1657687;85;21562;-48
2021/08/17 04:39:12;;;;;;;22.82;10.38;;;;;;;26.60;56.66;101330.06;1677892;83;21044;-50
2021/08/17 04:41:39;;;;;;;11.78;7.67;;;;;;;26.66;56.52;101334.09;1720270;82;21043;-49
2021/08/17 04:44:07;;;;;;;13.18;7.92;;;;;;;26.70;56.61;101335.55;1723591;82;21070;-49
2021/08/17 04:46:33;;;;;;;10.23;6.12;;;;;;;26.75;56.60;101337.38;1724738;82;21003;-48
2021/08/17 04:49:01;;;;;;;16.60;8.45;;;;;;;26.79;56.57;101330.82;1723456;82;21105;-54
2021/08/17 04:51:28;;;;;;;11.08;6.62;;;;;;;26.94;56.31;101330.08;1721345;83;21049;-50
2021/08/17 04:53:55;;;;;;;8.98;5.15;;;;;;;26.89;56.51;101341.16;1717087;82;21585;-49
2021/08/17 04:56:22;;;;;;;8.13;4.95;;;;;;;26.93;56.57;101331.92;1722567;82;21486;-48
2021/08/17 04:58:49;;;;;;;8.95;4.55;;;;;;;26.99;56.65;101338.58;1724124;82;21019;-48
2021/08/17 05:01:15;;;;;;;15.55;6.12;;;;;;;27.03;56.71;101334.69;1725596;82;21041;-50
2021/08/17 05:03:43;;;;;;;15.23;5.97;;;;;;;27.07;56.70;101336.13;1722759;82;21034;-50
2021/08/17 05:06:09;;;;;;;6.10;4.35;;;;;;;27.11;56.69;101335.77;1719857;82;21072;-48
2021/08/17 05:08:40;;;;;;;5.53;4.25;;;;;;;27.15;56.60;101335.02;1718023;82;21062;-50
2021/08/17 05:11:08;;;;;;;5.87;4.25;;;;;;;27.23;56.43;101338.77;1729717;82;21530;-49
2021/08/17 05:13:37;;;;;;;6.08;4.53;;;;;;;27.22;56.56;101335.72;1724105;82;21078;-49
2021/08/17 05:16:05;;;;;;;5.42;4.80;;;;;;;27.27;56.55;101344.22;1722679;82;21047;-49
2021/08/17 05:18:33;;;;;;;7.95;4.62;;;;;;;27.30;56.62;101342.64;1723014;83;21054;-49
2021/08/17 05:21:01;;;;;;;5.17;4.67;;;;;;;27.34;56.66;101346.80;1723737;82;20990;-48
2021/08/17 05:23:29;;;;;;;19.50;17.62;;;;;;;27.39;56.65;101352.59;1712294;83;21030;-47
2021/08/17 05:25:56;;;;;;;8.53;6.75;;;;;;;27.45;56.56;101355.75;1724175;82;21105;-48
2021/08/17 05:28:23;;;;;;;12.93;11.80;;;;;;;27.49;56.53;101356.71;1722911;82;20997;-49
2021/08/17 05:30:49;;;;;;;21.02;19.10;;;;;;;27.55;56.58;101362.88;1674466;84;21075;-47
2021/08/17 05:33:18;;;;;;;12.58;11.35;;;;;;;27.60;56.68;101355.80;1664475;85;21033;-49
2021/08/17 05:35:45;;;;;;;7.20;6.42;;;;;;;27.65;56.64;101362.48;1662742;85;21083;-50
2021/08/17 05:38:12;;;;;;;4.97;4.45;;;;;;;27.71;56.67;101365.97;1663375;85;21548;-51
2021/08/17 05:40:39;;;;;;;4.78;4.37;;;;;;;27.78;56.64;101367.66;1663047;85;21064;-50
2021/08/17 05:43:05;;;;;;;11.25;5.35;;;;;;;27.83;56.57;101362.75;1663712;85;21536;-49
2021/08/17 05:45:33;;;;;;;6.40;4.87;;;;;;;27.89;56.66;101362.23;1665794;85;20997;-50
2021/08/17 05:48:00;;;;;;;144.13;18.27;;;;;;;27.93;56.65;101365.86;1665984;85;21051;-51
2021/08/17 05:50:28;;;;;;;13.25;6.00;;;;;;;27.98;56.74;101362.84;1664756;85;21095;-50
2021/08/17 05:52:56;;;;;;;10.20;5.87;;;;;;;28.04;56.76;101367.66;1663694;85;21045;-48
2021/08/17 05:55:23;;;;;;;6.47;5.55;;;;;;;28.11;56.79;101371.49;1665726;84;21072;-51
2021/08/17 05:57:58;;;;;;;5.65;5.10;;;;;;;28.19;56.69;101369.04;1664740;84;21036;-49
2021/08/17 06:00:26;;;;;;;6.53;4.83;;;;;;;28.26;56.56;101362.64;1664084;85;21037;-51
2021/08/17 06:02:53;;;;;;;6.37;4.35;;;;;;;28.37;56.53;101374.14;1680886;84;21489;-50
2021/08/17 06:05:22;;;;;;;5.55;4.22;;;;;;;28.52;56.31;101371.45;1675502;84;21046;-48
2021/08/17 06:07:50;;;;;;;4.50;4.03;;;;;;;28.77;55.54;101371.56;1685898;84;21541;-52
2021/08/17 06:10:17;;;;;;;6.37;4.33;;;;;;;28.92;55.25;101371.53;1685733;84;21560;-47
2021/08/17 06:12:46;;;;;;;6.45;4.20;;;;;;;29.03;54.98;101374.59;1671980;85;21035;-49
2021/08/17 06:15:13;;;;;;;4.75;4.22;;;;;;;29.16;54.84;101376.58;1679493;83;21099;-47
2021/08/17 06:17:40;;;;;;;8.15;4.42;;;;;;;29.25;54.67;101370.38;1669177;85;21067;-46
2021/08/17 06:20:10;;;;;;;6.90;4.67;;;;;;;29.33;54.64;101375.40;1663141;84;21059;-46
2021/08/17 06:22:37;;;;;;;6.95;4.40;;;;;;;29.42;54.50;101374.58;1670567;84;21568;-47
2021/08/17 06:25:08;;;;;;;6.30;3.85;;;;;;;29.52;54.26;101379.45;1667073;85;21052;-47
2021/08/17 06:27:36;;;;;;;6.23;4.00;;;;;;;29.62;53.95;101378.11;1681313;84;21071;-47
2021/08/17 06:30:06;;;;;;;5.03;4.33;;;;;;;29.73;53.54;101384.73;1683316;83;21088;-48
2021/08/17 06:32:34;;;;;;;5.25;4.08;;;;;;;29.80;53.68;101384.49;1677026;84;20987;-47
2021/08/17 06:35:01;;;;;;;7.12;4.20;;;;;;;29.85;53.69;101384.93;1669968;84;21031;-49
2021/08/17 06:37:30;;;;;;;6.55;5.50;;;;;;;29.93;53.80;101385.06;1674714;84;21048;-48
2021/08/17 06:40:01;;;;;;;9.25;7.47;;;;;;;30.03;53.23;101384.55;1667376;85;21051;-48
2021/08/17 06:42:35;;;;;;;11.43;10.32;;;;;;;30.14;52.86;101385.75;1668360;84;21091;-48
2021/08/17 06:45:04;;;;;;;7.35;6.25;;;;;;;30.27;52.55;101390.33;1669523;85;21057;-46
2021/08/17 06:47:31;;;;;;;8.65;4.30;;;;;;;30.36;52.13;101388.14;1675789;84;21090;-47
2021/08/17 06:49:57;;;;;;;5.97;4.05;;;;;;;30.45;51.76;101392.65;1675189;85;21053;-47
2021/08/17 06:52:24;;;;;;;6.65;4.12;;;;;;;30.51;51.48;101392.06;1674006;85;21591;-49
2021/08/17 06:54:51;;;;;;;5.08;4.30;;;;;;;30.57;51.34;101388.42;1666615;84;21093;-48
2021/08/17 06:57:18;;;;;;;4.55;3.87;;;;;;;30.59;51.16;101386.44;1676962;84;21028;-48
2021/08/17 06:59:46;;;;;;;7.65;5.37;;;;;;;30.62;51.15;101388.84;1679664;84;21037;-47
2021/08/17 07:02:12;;;;;;;6.55;5.40;;;;;;;30.66;51.06;101396.95;1674798;85;21522;-50
2021/08/17 07:04:39;;;;;;;7.78;6.80;;;;;;;30.69;50.97;101393.96;1675633;85;21081;-49
2021/08/17 07:07:06;;;;;;;8.20;6.35;;;;;;;30.74;50.89;101397.06;1676145;85;21034;-48
2021/08/17 07:09:32;;;;;;;10.20;8.60;;;;;;;30.76;50.83;101404.48;1674574;85;20993;-48
2021/08/17 07:11:59;;;;;;;5.90;5.33;;;;;;;30.79;50.73;101396.96;1677542;83;21056;-49
2021/08/17 07:14:26;;;;;;;7.45;5.58;;;;;;;30.82;50.77;101401.20;1674378;84;21115;-47
2021/08/17 07:16:53;;;;;;;10.35;5.17;;;;;;;30.84;50.76;101405.44;1676831;84;20977;-47
2021/08/17 07:19:20;;;;;;;12.50;8.35;;;;;;;30.87;50.91;101405.68;1674396;84;21064;-48
2021/08/17 07:21:47;;;;;;;5.35;4.85;;;;;;;30.88;50.82;101401.50;1675252;85;21152;-48
2021/08/17 07:24:14;;;;;;;8.70;7.75;;;;;;;30.91;50.78;101405.73;1670349;84;21013;-50
2021/08/17 07:26:40;;;;;;;8.10;5.70;;;;;;;30.91;50.89;101399.87;1675883;84;21502;-48
2021/08/17 07:29:07;;;;;;;5.83;4.55;;;;;;;30.93;51.03;101395.19;1720712;82;21062;-47
2021/08/17 07:31:36;;;;;;;4.95;4.45;;;;;;;30.97;51.11;101391.70;1716304;82;21130;-52
2021/08/17 07:34:05;;;;;;;7.50;4.47;;;;;;;31.00;51.10;101398.95;1719245;82;21610;-47
2021/08/17 07:36:36;;;;;;;6.00;4.30;;;;;;;31.05;51.04;101409.27;1721739;82;21082;-48
2021/08/17 07:39:04;;;;;;;5.75;4.42;;;;;;;31.09;51.06;101405.28;1723837;82;21031;-49
2021/08/17 07:41:31;;;;;;;8.30;5.62;;;;;;;31.11;51.22;101405.98;1721023;82;21558;-49
2021/08/17 07:43:59;;;;;;;12.55;11.48;;;;;;;31.14;51.29;101403.01;1719157;82;21095;-47
2021/08/17 07:46:25;;;;;;;6.53;5.75;;;;;;;31.17;51.29;101405.38;1723584;82;21062;-46
2021/08/17 07:48:52;;;;;;;8.70;7.20;;;;;;;31.19;51.28;101404.73;1722412;82;20974;-48
2021/08/17 07:51:19;;;;;;;13.93;12.13;;;;;;;31.23;51.32;101399.40;1722036;82;21014;-48
2021/08/17 07:53:46;;;;;;;13.85;12.35;;;;;;;31.24;51.40;101395.73;1720596;82;21042;-52
2021/08/17 07:56:13;;;;;;;15.43;6.50;;;;;;;31.28;51.42;101391.73;1725124;82;21137;-50
2021/08/17 07:58:41;;;;;;;6.05;5.22;;;;;;;31.30;51.35;101392.44;1712572;82;21565;-52
2021/08/17 08:01:11;;;;;;;5.55;4.60;;;;;;;31.32;51.45;101383.72;1723387;82;21061;-49
2021/08/17 08:03:36;;;;;;;4.47;4.08;;;;;;;31.35;51.36;101382.05;1726196;82;21011;-47
2021/08/17 08:06:03;;;;;;;7.90;3.52;;;;;;;31.41;51.03;101384.69;1712940;82;21057;-49
2021/08/17 08:08:30;;;;;;;4.67;4.28;;;;;;;31.44;50.38;101377.64;1720821;82;21038;-49
2021/08/17 08:10:57;;;;;;;5.87;4.20;;;;;;;31.48;49.70;101374.50;1722292;82;21010;-49
2021/08/17 08:13:24;;;;;;;23.65;20.97;;;;;;;31.52;48.87;101370.50;1722223;82;21042;-48
2021/08/17 08:15:50;;;;;;;10.43;9.30;;;;;;;31.56;48.42;101369.69;1719677;82;21022;-48
2021/08/17 08:18:17;;;;;;;9.08;7.17;;;;;;;31.57;48.05;101376.28;1725541;82;21190;-48
2021/08/17 08:20:46;;;;;;;4.78;4.20;;;;;;;31.58;47.82;101372.58;1725095;82;21135;-50
2021/08/17 08:23:13;;;;;;;5.47;4.10;;;;;;;31.59;47.38;101371.59;1724442;82;21018;-49
2021/08/17 08:25:40;;;;;;;4.90;3.20;;;;;;;31.59;46.60;101370.25;1720692;82;21070;-49
2021/08/17 08:28:08;;;;;;;7.25;3.40;;;;;;;31.58;45.88;101372.58;1722777;82;21058;-48
2021/08/17 08:30:36;;;;;;;5.50;3.60;;;;;;;31.58;45.33;101367.69;1720543;82;21041;-51
2021/08/17 08:33:03;;;;;;;4.12;3.60;;;;;;;31.57;45.22;101368.21;1722501;82;21490;-52
2021/08/17 08:35:30;;;;;;;4.50;3.25;;;;;;;31.58;45.28;101367.20;1721330;82;21034;-48
2021/08/17 08:37:58;;;;;;;3.83;3.40;;;;;;;31.58;44.98;101372.58;1719779;83;21006;-48
2021/08/17 08:40:25;;;;;;;5.28;3.87;;;;;;;31.58;44.73;101366.34;1720814;82;21593;-47
2021/08/17 08:42:53;;;;;;;5.12;4.10;;;;;;;31.57;45.21;101367.36;1723728;82;21058;-48
2021/08/17 08:45:20;;;;;;;4.50;4.10;;;;;;;31.57;45.26;101366.87;1722292;82;21119;-49
2021/08/17 08:47:47;;;;;;;8.53;3.90;;;;;;;31.58;45.42;101367.69;1720018;82;21019;-48
2021/08/17 08:50:14;;;;;;;5.17;3.95;;;;;;;31.58;45.72;101371.23;1724177;82;21072;-52
2021/08/17 08:52:41;;;;;;;6.05;3.75;;;;;;;31.59;46.10;101370.73;1725135;82;21077;-49
2021/08/17 08:55:09;;;;;;;4.33;3.62;;;;;;;31.59;46.45;101366.21;1724605;82;21097;-48
2021/08/17 08:57:36;;;;;;;5.70;3.95;;;;;;;31.60;46.64;101365.20;1715096;82;21534;-49
2021/08/17 09:00:05;;;;;;;6.10;4.60;;;;;;;31.61;46.61;101365.56;1718900;82;21026;-48
2021/08/17 09:02:32;;;;;;;7.47;5.45;;;;;;;31.62;46.77;101361.85;1724921;82;21593;-48
2021/08/17 09:05:00;;;;;;;6.53;4.05;;;;;;;31.65;46.56;101362.91;1718546;82;20999;-47
2021/08/17 09:07:39;;;;;;;9.35;8.45;;;;;;;31.67;46.75;101360.05;1725971;82;20995;-49
2021/08/17 09:10:13;;;;;;;9.95;7.62;;;;;;;31.69;46.95;101361.59;1726525;82;21086;-46
2021/08/17 09:12:54;;;;;;;11.03;6.90;;;;;;;31.71;47.08;101360.09;1723267;82;21070;-47
2021/08/17 09:15:34;;;;;;;6.47;5.87;;;;;;;31.75;46.75;101357.43;1722595;82;21058;-47
2021/08/17 09:18:11;;;;;;;13.05;6.65;;;;;;;31.75;46.41;101352.90;1732144;82;21046;-50
2021/08/17 09:20:44;;;;;;;5.28;3.87;;;;;;;31.79;46.60;101356.97;1724972;82;21097;-49
2021/08/17 09:23:32;;;;;;;5.35;4.00;;;;;;;31.83;46.46;101352.97;1722107;82;21581;-47
2021/08/17 09:26:03;;;;;;;3.85;3.55;;;;;;;31.86;46.25;101352.63;1730201;82;22375;-46
2021/08/17 09:28:33;;;;;;;5.03;3.22;;;;;;;31.90;45.97;101352.67;1715586;82;21048;-50
2021/08/17 09:31:05;;;;;;;5.62;3.30;;;;;;;31.94;45.86;101359.46;1723885;82;21062;-48
2021/08/17 09:33:40;;;;;;;3.98;3.33;;;;;;;31.96;45.87;101363.36;1670090;85;21062;-50
2021/08/17 09:36:09;;;;;;;6.25;3.50;;;;;;;31.98;45.76;101358.67;1660852;85;21091;-47
2021/08/17 09:38:36;;;;;;;5.85;5.30;;;;;;;31.99;45.83;101363.03;1671328;85;21059;-49
2021/08/17 09:41:22;;;;;;;4.95;4.50;;;;;;;32.01;45.50;101361.03;1664584;85;21496;-49
2021/08/17 09:43:58;;;;;;;3.60;3.30;;;;;;;32.03;45.42;101362.57;1641244;86;21060;-48
2021/08/17 09:46:31;;;;;;;6.58;3.52;;;;;;;32.04;45.22;101365.63;1642403;87;21528;-47
2021/08/17 09:49:21;;;;;;;3.58;3.27;;;;;;;32.05;44.98;101368.64;1557783;91;21107;-47
2021/08/17 09:51:48;;;;;;;4.00;3.60;;;;;;;32.06;44.87;101362.27;1544539;90;21063;-47
2021/08/17 09:54:17;;;;;;;4.72;3.37;;;;;;;32.05;44.64;101365.95;1540451;91;21072;-49
2021/08/17 09:56:58;;;;;;;4.15;3.80;;;;;;;32.05;44.45;101359.22;1547766;92;21144;-49
2021/08/17 09:59:26;;;;;;;6.58;4.05;;;;;;;32.05;44.59;101359.22;1537064;91;21043;-49
2021/08/17 10:01:54;;;;;;;3.62;3.33;;;;;;;32.08;44.21;101360.27;1558310;90;21093;-48
2021/08/17 10:06:56;;;;;;;3.77;3.22;;;;;;;32.12;44.40;101355.41;1476059;95;21081;-48
2021/08/17 10:09:23;;;;;;;5.05;3.80;;;;;;;32.14;44.71;101363.31;1489144;96;21624;-46
2021/08/17 10:11:51;;;;;;;4.15;3.70;;;;;;;32.17;44.61;101364.36;1489672;96;21140;-49
2021/08/17 10:14:19;;;;;;;4.90;3.40;;;;;;;32.18;44.04;101364.69;1489889;96;21257;-49
2021/08/17 10:16:46;;;;;;;5.45;3.25;;;;;;;32.19;44.12;101361.01;1491375;95;21086;-48
2021/08/17 10:19:21;;;;;;;9.65;5.55;;;;;;;32.19;44.05;101352.93;1496455;95;21625;-48
2021/08/17 10:21:51;;;;;;;7.25;4.53;;;;;;;32.20;43.73;101351.91;1495661;96;21175;-47
2021/08/17 10:24:36;;;;;;;6.70;5.47;;;;;;;32.21;43.60;101350.92;1490393;96;21149;-51
2021/08/17 10:27:33;;;;;;;5.28;4.75;;;;;;;32.21;43.50;101348.23;1522381;93;21589;-50
2021/08/17 10:30:17;;;;;;;7.15;6.55;;;;;;;32.22;43.75;101349.91;1534924;91;21110;-48
2021/08/17 10:32:56;;;;;;;7.83;4.58;;;;;;;32.22;43.11;101344.52;1551659;91;21109;-47
2021/08/17 10:35:33;;;;;;;8.78;7.55;;;;;;;32.23;43.36;101344.88;1551213;90;21049;-48
2021/08/17 10:38:15;;;;;;;5.30;4.80;;;;;;;32.24;43.65;101342.51;1577764;89;21096;-48
2021/08/17 10:40:56;;;;;;;8.75;4.60;;;;;;;32.25;43.80;101340.17;1556014;90;21134;-47
2021/08/17 10:43:35;;;;;;;10.82;4.45;;;;;;;32.26;43.95;101340.50;1587445;89;21617;-49
2021/08/17 10:46:05;;;;;;;7.60;4.12;;;;;;;32.27;43.83;101343.55;1628680;84;21587;-48
2021/08/17 10:48:54;;;;;;;5.90;3.50;;;;;;;32.27;43.81;101340.86;1667580;85;21017;-50
2021/08/17 10:51:33;;;;;;;5.30;3.08;;;;;;;32.28;43.52;101339.84;1665869;85;21044;-50
2021/08/17 10:54:09;;;;;;;4.97;3.58;;;;;;;32.28;43.29;101338.00;1669718;84;21013;-47
2021/08/17 10:56:37;;;;;;;4.80;4.03;;;;;;;32.29;43.43;101332.97;1667273;85;21132;-49
2021/08/17 10:59:05;;;;;;;5.78;4.28;;;;;;;32.29;43.59;101333.47;1664656;85;21026;-46
2021/08/17 11:01:46;;;;;;;6.97;4.15;;;;;;;32.28;43.31;101328.58;1642504;85;21045;-50
2021/08/17 11:04:18;;;;;;;4.50;4.00;;;;;;;32.27;42.67;101328.73;1663515;85;21543;-47
2021/08/17 11:06:54;;;;;;;7.00;3.65;;;;;;;32.25;42.34;101330.75;1670770;85;21517;-46
2021/08/17 11:09:37;;;;;;;3.60;3.30;;;;;;;32.23;41.92;101327.38;1674664;82;21089;-48
2021/08/17 11:12:09;;;;;;;4.15;3.33;;;;;;;32.20;41.81;101327.67;1711823;83;21093;-48
2021/08/17 11:14:39;;;;;;;4.08;3.22;;;;;;;32.19;42.22;101323.31;1658959;84;21551;-47
2021/08/17 11:19:41;;;;;;;4.50;3.42;;;;;;;32.18;42.37;101321.61;1576710;90;21112;-50
2021/08/17 11:22:10;;;;;;;;;;;;;;;32.16;42.22;101315.53;1572099;90;21046;-45
2021/08/17 11:24:48;;;;;;;5.40;3.22;;;;;;;32.14;42.15;101313.50;1575070;90;20192;-47
2021/08/17 11:27:22;;;;;;;14.20;11.53;;;;;;;32.12;42.51;101315.02;1571718;90;21069;-47
2021/08/17 11:30:01;;;;;;;6.95;5.65;;;;;;;32.11;42.54;101309.80;1570113;88;21125;-48
2021/08/17 11:32:35;;;;;;;4.95;4.40;;;;;;;32.08;41.80;101305.08;1518375;91;21086;-46
2021/08/17 11:35:13;;;;;;;6.03;5.28;;;;;;;32.07;41.66;101306.55;1538171;92;21618;-49
2021/08/17 11:37:43;;;;;;;5.05;4.28;;;;;;;32.06;41.71;101304.88;1521553;93;21079;-48